Terminal Aerodrome Forecast
Issued by NWS Oklahoma City, OK

Home | Current Version | Previous Version | Text Only | Print | Product List | Glossary On
Versions: 1 2 3 4 5 6 7 8 9 10 11 12 13
000
FTUS44 KOUN 262332
TAFOUN
TAF
KOUN 262332Z 2700/2724 11005KT P6SM BKN120
     FM271200 14012KT 1SM -DZ BR OVC005
     FM271700 18013KT P6SM BKN015=

USA.gov is the U.S. government's official web portal to all federal, state and local government web resources and services.